createdAt,value
2022-08-01T00:00:09.204Z,42.55
2022-08-01T00:02:39.759Z,44.70
2022-08-01T00:05:08.183Z,44.21
2022-08-01T00:07:36.001Z,44.01
2022-08-01T00:10:08.309Z,43.80
2022-08-01T00:12:35.255Z,43.98
2022-08-01T00:15:02.101Z,43.47
2022-08-01T00:17:28.789Z,43.10
2022-08-01T00:19:55.420Z,44.01
2022-08-01T00:22:22.101Z,43.95
2022-08-01T00:24:48.812Z,43.49
2022-08-01T00:27:15.430Z,43.44
2022-08-01T00:30:13.212Z,45.08
2022-08-01T00:32:31.863Z,44.00
2022-08-01T00:34:58.507Z,43.79
2022-08-01T00:37:25.187Z,44.41
2022-08-01T00:39:52.073Z,44.27
2022-08-01T00:42:18.761Z,45.50
2022-08-01T00:44:45.578Z,45.62
2022-08-01T00:47:12.218Z,46.13
2022-08-01T00:49:39.097Z,47.08
2022-08-01T00:52:07.490Z,46.31
2022-08-01T00:54:34.628Z,45.28
2022-08-01T00:57:01.410Z,45.57
2022-08-01T00:59:28.265Z,47.09
2022-08-01T01:01:56.072Z,47.40
2022-08-01T01:04:23.606Z,49.60
2022-08-01T01:07:32.702Z,46.65
2022-08-01T01:10:10.579Z,45.11
2022-08-01T01:13:08.000Z,44.01
2022-08-01T01:15:45.800Z,43.99
2022-08-01T01:18:33.809Z,43.97
2022-08-01T01:21:12.558Z,45.45
2022-08-01T01:24:38.514Z,47.29
2022-08-01T01:27:19.912Z,46.56
2022-08-01T01:29:58.653Z,45.28
2022-08-01T01:32:35.113Z,45.89
2022-08-01T01:35:07.739Z,44.31
2022-08-01T01:37:36.584Z,42.44
2022-08-01T01:40:05.536Z,42.29
2022-08-01T01:42:34.249Z,41.64
2022-08-01T01:45:05.141Z,40.92
2022-08-01T01:47:33.612Z,40.96
2022-08-01T01:50:03.078Z,40.60
2022-08-01T01:52:31.875Z,38.33
2022-08-01T01:55:00.735Z,38.28
2022-08-01T01:57:30.416Z,37.05
2022-08-01T01:59:58.675Z,36.19
2022-08-01T02:02:26.679Z,35.79
2022-08-01T02:04:55.177Z,35.63
2022-08-01T02:07:27.454Z,37.21
2022-08-01T02:09:56.713Z,38.06
2022-08-01T02:12:25.442Z,38.27
2022-08-01T02:14:55.153Z,38.98
2022-08-01T02:17:24.998Z,38.87
2022-08-01T02:19:52.102Z,39.51
2022-08-01T02:22:27.061Z,42.59
2022-08-01T02:25:07.084Z,43.18
2022-08-01T02:27:46.954Z,41.76
2022-08-01T02:30:16.300Z,41.47
2022-08-01T02:32:47.637Z,43.22
2022-08-01T02:35:30.225Z,42.76
2022-08-01T02:37:59.585Z,41.64
2022-08-01T02:40:30.787Z,41.59
2022-08-01T02:43:00.033Z,43.15
2022-08-01T02:45:28.208Z,43.84
2022-08-01T02:48:09.360Z,43.47
2022-08-01T02:50:37.441Z,42.75
2022-08-01T02:53:07.332Z,40.35
2022-08-01T02:55:35.132Z,43.10
2022-08-01T02:58:04.159Z,41.60
2022-08-01T03:00:31.645Z,43.50
2022-08-01T03:03:00.776Z,42.44
2022-08-01T03:05:28.228Z,41.11
2022-08-01T03:07:56.931Z,41.69
2022-08-01T03:10:32.074Z,41.61
2022-08-01T03:13:01.329Z,40.42
2022-08-01T03:15:32.034Z,40.08
2022-08-01T03:18:01.913Z,40.06
2022-08-01T03:20:31.171Z,39.27
2022-08-01T03:23:00.277Z,40.56
2022-08-01T03:25:28.458Z,40.13
2022-08-01T03:28:02.336Z,40.40
2022-08-01T03:30:31.008Z,41.58
2022-08-01T03:32:58.196Z,41.64
2022-08-01T03:35:30.626Z,40.44
2022-08-01T03:38:15.833Z,40.61
2022-08-01T03:40:50.843Z,41.64
2022-08-01T03:43:42.642Z,41.90
2022-08-01T03:46:14.527Z,41.78
2022-08-01T03:48:48.225Z,41.53
2022-08-01T03:51:16.822Z,41.45
2022-08-01T03:53:46.255Z,41.38
2022-08-01T03:56:17.668Z,39.75
2022-08-01T03:58:45.040Z,42.24
2022-08-01T04:01:18.237Z,42.34
2022-08-01T04:03:45.526Z,42.94
2022-08-01T04:06:14.791Z,43.30
2022-08-01T04:08:42.322Z,42.09
2022-08-01T04:11:10.163Z,40.49
2022-08-01T04:13:38.399Z,40.42
2022-08-01T04:16:05.839Z,40.10
2022-08-01T04:18:33.243Z,39.86
2022-08-01T04:21:00.003Z,39.60
2022-08-01T04:23:28.642Z,39.09
2022-08-01T04:25:56.921Z,41.00
2022-08-01T04:28:24.680Z,40.95
2022-08-01T04:30:59.755Z,41.43
2022-08-01T04:33:31.079Z,41.26
2022-08-01T04:36:02.073Z,40.74
2022-08-01T04:38:32.990Z,41.08
2022-08-01T04:41:09.182Z,40.44
2022-08-01T04:43:37.617Z,40.09
2022-08-01T04:46:05.120Z,41.52
2022-08-01T04:48:34.622Z,41.26
2022-08-01T04:51:01.883Z,39.89
2022-08-01T04:53:28.948Z,39.49
2022-08-01T04:55:56.711Z,39.30
2022-08-01T04:58:23.436Z,40.77
2022-08-01T05:00:50.245Z,40.61
2022-08-01T05:03:16.954Z,40.27
2022-08-01T05:05:43.574Z,41.85
2022-08-01T05:08:11.118Z,41.09
2022-08-01T05:10:37.880Z,40.16
2022-08-01T05:13:04.615Z,38.67
2022-08-01T05:15:31.976Z,39.55
2022-08-01T05:17:58.794Z,39.30
2022-08-01T05:20:25.639Z,39.28
2022-08-01T05:22:52.661Z,39.61
2022-08-01T05:25:20.610Z,38.96
2022-08-01T05:28:05.932Z,40.07
2022-08-01T05:30:33.171Z,40.36
2022-08-01T05:32:59.836Z,39.40
2022-08-01T05:35:47.544Z,40.97
2022-08-01T05:38:14.814Z,39.18
2022-08-01T05:40:41.879Z,40.25
2022-08-01T05:43:08.619Z,40.31
2022-08-01T05:45:35.383Z,39.37
2022-08-01T05:48:02.071Z,39.44
2022-08-01T05:50:28.816Z,39.36
2022-08-01T05:52:55.501Z,38.92
2022-08-01T05:55:22.249Z,39.44
2022-08-01T05:57:49.001Z,39.86
2022-08-01T06:00:17.173Z,40.04
2022-08-01T06:02:44.484Z,39.12
2022-08-01T06:05:13.478Z,39.55
2022-08-01T06:07:41.215Z,38.54
2022-08-01T06:10:08.884Z,37.92
2022-08-01T06:12:36.476Z,38.41
2022-08-01T06:15:05.436Z,38.35
2022-08-01T06:17:32.134Z,39.76
2022-08-01T06:19:58.841Z,38.81
2022-08-01T06:22:25.688Z,38.74
2022-08-01T06:24:52.716Z,38.26
2022-08-01T06:27:21.881Z,38.58
2022-08-01T06:29:51.033Z,39.12
2022-08-01T06:32:26.806Z,38.48
2022-08-01T06:34:56.000Z,39.17
2022-08-01T06:37:23.456Z,39.35
2022-08-01T06:39:50.755Z,38.74
2022-08-01T06:42:18.428Z,38.73
2022-08-01T06:44:45.521Z,39.84
2022-08-01T06:47:12.222Z,39.55
2022-08-01T06:49:39.035Z,38.91
2022-08-01T06:52:06.098Z,39.68
2022-08-01T06:54:32.982Z,37.78
2022-08-01T06:56:59.649Z,38.49
2022-08-01T06:59:26.543Z,38.79
2022-08-01T07:01:53.216Z,38.91
2022-08-01T07:04:19.878Z,38.77
2022-08-01T07:06:46.575Z,38.65
2022-08-01T07:09:14.539Z,38.26
2022-08-01T07:11:42.349Z,38.09
2022-08-01T07:14:09.459Z,39.31
2022-08-01T07:16:36.547Z,38.95
2022-08-01T07:19:03.606Z,39.32
2022-08-01T07:21:40.650Z,39.79
2022-08-01T07:24:16.415Z,39.79
2022-08-01T07:26:53.306Z,39.38
2022-08-01T07:29:30.244Z,39.43
2022-08-01T07:31:58.243Z,39.73
2022-08-01T07:34:26.266Z,38.91
2022-08-01T07:36:53.803Z,38.34
2022-08-01T07:39:21.220Z,39.22
2022-08-01T07:42:06.159Z,38.07
2022-08-01T07:44:34.929Z,38.05
2022-08-01T07:47:01.708Z,39.25
2022-08-01T07:49:28.674Z,38.17
2022-08-01T07:52:04.213Z,37.01
2022-08-01T07:54:34.242Z,38.25
2022-08-01T07:57:02.349Z,38.56
2022-08-01T07:59:29.064Z,38.20
2022-08-01T08:01:55.814Z,38.08
2022-08-01T08:04:22.734Z,39.59
2022-08-01T08:06:50.217Z,39.05
2022-08-01T08:09:17.120Z,38.72
2022-08-01T08:11:48.458Z,38.30
2022-08-01T08:14:16.998Z,38.75
2022-08-01T08:16:44.880Z,39.06
2022-08-01T08:19:12.374Z,39.33
2022-08-01T08:21:39.888Z,39.21
2022-08-01T08:24:26.146Z,38.46
2022-08-01T08:26:56.709Z,39.04
2022-08-01T08:29:24.142Z,39.51
2022-08-01T08:31:53.009Z,38.92
2022-08-01T08:34:20.555Z,38.95
2022-08-01T08:36:48.965Z,39.20
2022-08-01T08:39:17.575Z,38.84
2022-08-01T08:41:49.085Z,38.07
2022-08-01T08:44:17.268Z,37.92
2022-08-01T08:46:49.285Z,38.29
2022-08-01T08:49:21.180Z,37.30
2022-08-01T08:51:50.865Z,36.71
2022-08-01T08:54:19.409Z,37.95
2022-08-01T08:56:48.228Z,37.56
2022-08-01T08:59:15.147Z,36.93
2022-08-01T09:01:43.550Z,37.55
2022-08-01T09:04:10.784Z,37.78
2022-08-01T09:06:38.076Z,37.97
2022-08-01T09:09:07.930Z,36.87
2022-08-01T09:11:36.021Z,36.16
2022-08-01T09:14:07.751Z,35.52
2022-08-01T09:16:35.809Z,36.67
2022-08-01T09:19:40.299Z,36.87
2022-08-01T09:22:19.670Z,38.24
2022-08-01T09:25:08.556Z,36.39
2022-08-01T09:27:43.862Z,36.41
2022-08-01T09:30:17.228Z,36.69
2022-08-01T09:32:55.958Z,38.13
2022-08-01T09:35:36.171Z,37.82
2022-08-01T09:38:20.615Z,37.14
2022-08-01T09:40:50.328Z,37.29
2022-08-01T09:43:17.896Z,38.11
2022-08-01T09:45:49.040Z,38.53
2022-08-01T09:48:18.500Z,38.21
2022-08-01T09:50:48.204Z,38.95
2022-08-01T09:53:29.818Z,38.48
2022-08-01T09:56:10.781Z,38.71
2022-08-01T09:59:02.271Z,37.90
2022-08-01T10:01:50.073Z,37.02
2022-08-01T10:04:18.428Z,36.14
2022-08-01T10:06:55.854Z,37.34
2022-08-01T10:09:40.237Z,38.08
2022-08-01T10:12:09.241Z,37.12
2022-08-01T10:14:46.139Z,37.66
2022-08-01T10:17:18.411Z,38.02
2022-08-01T10:19:46.008Z,38.08
2022-08-01T10:22:17.731Z,36.72
2022-08-01T10:24:48.937Z,34.94
2022-08-01T10:27:24.518Z,35.59
2022-08-01T10:30:14.199Z,35.88
2022-08-01T10:32:50.550Z,35.46
2022-08-01T10:35:24.071Z,35.57
2022-08-01T10:38:06.083Z,36.11
2022-08-01T10:40:38.289Z,35.53
2022-08-01T10:43:06.650Z,35.58
2022-08-01T10:45:34.465Z,35.50
2022-08-01T10:48:10.872Z,35.48
2022-08-01T10:50:49.376Z,35.53
2022-08-01T10:53:24.480Z,36.40
2022-08-01T10:56:02.313Z,35.84
2022-08-01T10:58:39.799Z,35.30
2022-08-01T11:01:27.937Z,35.33
2022-08-01T11:04:12.568Z,34.82
2022-08-01T11:07:03.200Z,35.78
2022-08-01T11:09:40.605Z,35.16
2022-08-01T11:12:13.659Z,35.46
2022-08-01T11:15:02.871Z,36.79
2022-08-01T11:17:54.707Z,36.49
2022-08-01T11:20:21.744Z,35.42
2022-08-01T11:23:03.218Z,35.97
2022-08-01T11:26:05.265Z,35.55
2022-08-01T11:28:32.697Z,35.26
2022-08-01T11:31:11.884Z,35.68
2022-08-01T11:33:46.229Z,35.64
2022-08-01T11:36:14.744Z,35.97
2022-08-01T11:38:47.432Z,36.37
2022-08-01T11:41:14.706Z,36.31
2022-08-01T11:43:56.824Z,35.99
2022-08-01T11:47:08.713Z,36.47
2022-08-01T11:49:41.531Z,36.33
2022-08-01T11:52:08.584Z,36.54
2022-08-01T11:54:38.029Z,36.00
2022-08-01T11:57:07.573Z,37.46
2022-08-01T12:00:02.808Z,36.69
2022-08-01T12:02:35.217Z,36.25
2022-08-01T12:05:12.161Z,35.83
2022-08-01T12:07:40.633Z,35.80
2022-08-01T12:10:11.717Z,36.10
2022-08-01T12:12:43.763Z,36.11
2022-08-01T12:15:11.512Z,35.18
2022-08-01T12:17:57.976Z,35.27
2022-08-01T12:20:32.179Z,35.58
2022-08-01T12:23:02.049Z,35.09
2022-08-01T12:25:28.844Z,34.70
2022-08-01T12:27:56.727Z,35.08
2022-08-01T12:30:26.015Z,34.62
2022-08-01T12:32:54.764Z,35.66
2022-08-01T12:35:27.082Z,35.58
2022-08-01T12:37:57.006Z,34.94
2022-08-01T12:40:29.399Z,35.92
2022-08-01T12:43:00.694Z,35.24
2022-08-01T12:45:29.938Z,34.90
2022-08-01T12:47:59.717Z,35.38
2022-08-01T12:50:30.711Z,34.42
2022-08-01T12:52:58.359Z,35.48
2022-08-01T12:55:33.741Z,35.57
2022-08-01T12:58:06.212Z,34.41
2022-08-01T13:00:33.044Z,34.43
2022-08-01T13:03:11.975Z,34.37
2022-08-01T13:05:56.339Z,32.87
2022-08-01T13:08:29.808Z,33.27
2022-08-01T13:11:10.033Z,32.90
2022-08-01T13:13:48.389Z,33.25
2022-08-01T13:16:30.788Z,33.10
2022-08-01T13:19:05.826Z,33.25
2022-08-01T13:21:52.051Z,33.67
2022-08-01T13:24:24.861Z,33.70
2022-08-01T13:26:56.966Z,33.70
2022-08-01T13:29:33.639Z,33.61
2022-08-01T13:32:05.702Z,33.45
2022-08-01T13:34:34.711Z,33.49
2022-08-01T13:37:02.669Z,33.19
2022-08-01T13:39:41.883Z,33.92
2022-08-01T13:42:16.436Z,33.26
2022-08-01T13:44:48.948Z,33.37
2022-08-01T13:47:16.297Z,34.68
2022-08-01T13:49:44.495Z,34.00
2022-08-01T13:52:11.353Z,33.21
2022-08-01T13:54:38.097Z,33.55
2022-08-01T13:57:05.304Z,33.70
2022-08-01T13:59:31.991Z,34.23
2022-08-01T14:01:58.865Z,33.55
2022-08-01T14:04:25.935Z,34.63
2022-08-01T14:06:52.687Z,34.67
2022-08-01T14:09:24.192Z,34.80
2022-08-01T14:11:51.398Z,34.46
2022-08-01T14:14:18.082Z,34.39
2022-08-01T14:16:46.106Z,34.20
2022-08-01T14:19:13.204Z,34.11
2022-08-01T14:21:39.898Z,34.13
2022-08-01T14:24:10.795Z,34.37
2022-08-01T14:26:37.471Z,33.69
2022-08-01T14:29:04.220Z,33.96
2022-08-01T14:31:34.299Z,33.40
2022-08-01T14:34:01.470Z,32.79
2022-08-01T14:36:31.328Z,33.36
2022-08-01T14:39:00.293Z,32.67
2022-08-01T14:41:30.688Z,32.79
2022-08-01T14:43:58.280Z,32.37
2022-08-01T14:46:24.938Z,32.26
2022-08-01T14:48:51.593Z,32.40
2022-08-01T14:51:18.451Z,31.92
2022-08-01T14:53:46.710Z,32.47
2022-08-01T14:56:18.363Z,32.06
2022-08-01T14:58:45.401Z,32.46
2022-08-01T15:01:12.302Z,32.72
2022-08-01T15:03:39.097Z,33.33
2022-08-01T15:06:07.455Z,32.42
2022-08-01T15:08:34.276Z,31.34
2022-08-01T15:11:02.217Z,32.29
2022-08-01T15:13:28.970Z,32.18
2022-08-01T15:15:55.590Z,32.31
2022-08-01T15:18:28.035Z,32.57
2022-08-01T15:20:54.984Z,32.98
2022-08-01T15:23:22.095Z,33.65
2022-08-01T15:25:48.874Z,32.71
2022-08-01T15:28:15.635Z,33.17
2022-08-01T15:30:42.440Z,33.33
2022-08-01T15:33:09.169Z,32.83
2022-08-01T15:35:35.940Z,32.01
2022-08-01T15:38:03.211Z,33.34
2022-08-01T15:40:29.930Z,32.33
2022-08-01T15:42:56.729Z,32.69
2022-08-01T15:45:46.497Z,32.92
2022-08-01T15:48:10.296Z,32.16
2022-08-01T15:50:39.234Z,32.80
2022-08-01T15:53:06.963Z,32.79
2022-08-01T15:55:38.248Z,32.62
2022-08-01T15:58:05.717Z,32.88
2022-08-01T16:00:33.873Z,33.10
2022-08-01T16:03:06.355Z,33.30
2022-08-01T16:05:33.072Z,32.67
2022-08-01T16:08:01.612Z,32.96
2022-08-01T16:10:30.011Z,32.94
2022-08-01T16:12:56.801Z,33.05
2022-08-01T16:15:31.309Z,32.09
2022-08-01T16:18:05.384Z,32.31
2022-08-01T16:20:32.152Z,32.18
2022-08-01T16:22:58.793Z,32.80
2022-08-01T16:25:25.527Z,32.68
2022-08-01T16:27:52.277Z,32.59
2022-08-01T16:30:18.992Z,32.49
2022-08-01T16:32:49.657Z,32.51
2022-08-01T16:35:20.451Z,32.33
2022-08-01T16:37:47.187Z,32.84
2022-08-01T16:40:13.838Z,32.87
2022-08-01T16:42:40.574Z,32.83
2022-08-01T16:45:13.647Z,32.60
2022-08-01T16:47:41.525Z,32.15
2022-08-01T16:50:09.661Z,32.52
2022-08-01T16:52:41.701Z,32.27
2022-08-01T16:55:09.589Z,31.98
2022-08-01T16:57:39.235Z,32.02
2022-08-01T17:00:21.289Z,32.43
2022-08-01T17:02:48.420Z,32.65
2022-08-01T17:05:15.356Z,32.75
2022-08-01T17:07:42.107Z,32.06
2022-08-01T17:10:09.985Z,31.83
2022-08-01T17:12:36.668Z,32.59
2022-08-01T17:15:04.352Z,32.57
2022-08-01T17:17:31.009Z,32.60
2022-08-01T17:19:57.803Z,32.06
2022-08-01T17:22:24.431Z,32.46
2022-08-01T17:24:52.096Z,31.35
2022-08-01T17:27:19.210Z,32.24
2022-08-01T17:29:46.440Z,32.36
2022-08-01T17:32:14.244Z,32.88
2022-08-01T17:34:42.457Z,32.43
2022-08-01T17:37:10.175Z,32.08
2022-08-01T17:39:39.425Z,31.33
2022-08-01T17:42:08.013Z,31.47
2022-08-01T17:44:35.264Z,31.18
2022-08-01T17:47:02.057Z,31.52
2022-08-01T17:49:53.215Z,32.18
2022-08-01T17:52:15.658Z,31.82
2022-08-01T17:54:42.371Z,31.76
2022-08-01T17:57:10.476Z,32.67
2022-08-01T17:59:37.327Z,32.38
2022-08-01T18:02:07.026Z,31.62
2022-08-01T18:04:33.882Z,32.66
2022-08-01T18:07:00.976Z,31.42
2022-08-01T18:09:32.629Z,31.66
2022-08-01T18:12:02.047Z,31.68
2022-08-01T18:14:40.048Z,31.99
2022-08-01T18:17:11.297Z,31.65
2022-08-01T18:19:39.072Z,32.54
2022-08-01T18:22:06.078Z,31.93
2022-08-01T18:24:52.700Z,31.78
2022-08-01T18:27:19.384Z,31.84
2022-08-01T18:29:48.323Z,31.80
2022-08-01T18:32:15.704Z,31.54
2022-08-01T18:34:42.465Z,31.94
2022-08-01T18:37:12.139Z,32.08
2022-08-01T18:39:40.681Z,32.51
2022-08-01T18:42:09.892Z,31.99
2022-08-01T18:44:37.043Z,32.09
2022-08-01T18:47:04.860Z,31.93
2022-08-01T18:49:31.919Z,32.22
2022-08-01T18:51:58.933Z,32.77
2022-08-01T18:54:27.240Z,32.78
2022-08-01T18:56:54.207Z,33.62
2022-08-01T18:59:21.669Z,33.53
2022-08-01T19:01:51.288Z,34.34
2022-08-01T19:04:18.627Z,33.53
2022-08-01T19:06:47.605Z,33.27
2022-08-01T19:09:14.666Z,33.36
2022-08-01T19:11:47.458Z,33.77
2022-08-01T19:14:15.288Z,34.03
2022-08-01T19:16:41.957Z,34.08
2022-08-01T19:19:11.714Z,34.08
2022-08-01T19:21:44.821Z,34.38
2022-08-01T19:24:23.444Z,34.67
2022-08-01T19:26:54.471Z,33.65
2022-08-01T19:29:35.047Z,33.98
2022-08-01T19:32:03.178Z,33.89
2022-08-01T19:34:29.980Z,34.50
2022-08-01T19:36:58.673Z,33.87
2022-08-01T19:39:29.416Z,33.26
2022-08-01T19:41:57.895Z,34.03
2022-08-01T19:44:26.122Z,34.07
2022-08-01T19:46:53.346Z,34.33
2022-08-01T19:49:21.754Z,34.04
2022-08-01T19:52:02.521Z,34.02
2022-08-01T19:54:37.721Z,35.03
2022-08-01T19:57:07.356Z,35.40
2022-08-01T19:59:37.333Z,34.49
2022-08-01T20:02:08.756Z,34.44
2022-08-01T20:04:35.759Z,34.42
2022-08-01T20:07:03.339Z,35.57
2022-08-01T20:09:31.703Z,35.51
2022-08-01T20:11:58.532Z,35.52
2022-08-01T20:14:26.775Z,36.80
2022-08-01T20:16:55.316Z,36.19
2022-08-01T20:19:27.360Z,36.56
2022-08-01T20:22:04.627Z,37.56
2022-08-01T20:24:41.280Z,37.45
2022-08-01T20:27:10.109Z,37.58
2022-08-01T20:29:37.383Z,37.30
2022-08-01T20:32:04.817Z,40.55
2022-08-01T20:34:37.421Z,39.70
2022-08-01T20:37:06.994Z,38.96
2022-08-01T20:39:38.331Z,38.93
2022-08-01T20:42:06.655Z,39.86
2022-08-01T20:44:36.371Z,42.55
2022-08-01T20:47:07.121Z,43.99
2022-08-01T20:49:36.399Z,46.23
2022-08-01T20:52:11.748Z,46.59
2022-08-01T20:54:40.622Z,44.05
2022-08-01T20:57:20.339Z,42.35
2022-08-01T20:59:56.476Z,44.07
2022-08-01T21:03:11.351Z,42.08
2022-08-01T21:05:55.498Z,40.31
2022-08-01T21:08:42.761Z,40.04
2022-08-01T21:11:16.087Z,39.60
2022-08-01T21:13:48.279Z,39.22
2022-08-01T21:16:23.984Z,39.42
2022-08-01T21:21:58.139Z,39.86
2022-08-01T21:24:34.304Z,43.42
2022-08-01T21:27:03.457Z,48.29
2022-08-01T21:29:32.768Z,48.44
2022-08-01T21:32:12.105Z,48.60
2022-08-01T21:34:39.643Z,47.04
2022-08-01T21:37:10.065Z,46.36
2022-08-01T21:39:37.916Z,44.89
2022-08-01T21:42:08.983Z,43.78
2022-08-01T21:44:42.284Z,43.72
2022-08-01T21:47:11.745Z,44.43
2022-08-01T21:49:40.749Z,44.00
2022-08-01T21:52:10.471Z,43.72
2022-08-01T21:54:49.045Z,43.50
2022-08-01T21:57:41.942Z,43.83
2022-08-01T22:00:12.636Z,42.93
2022-08-01T22:03:11.602Z,45.29
2022-08-01T22:05:40.535Z,44.84
2022-08-01T22:08:43.221Z,43.73
2022-08-01T22:11:13.430Z,44.08
2022-08-01T22:13:42.048Z,43.21
2022-08-01T22:16:10.363Z,44.17
2022-08-01T22:18:38.327Z,43.57
2022-08-01T22:21:05.079Z,43.90
2022-08-01T22:23:36.430Z,42.64
2022-08-01T22:26:06.574Z,41.53
2022-08-01T22:28:35.831Z,41.31
2022-08-01T22:31:03.008Z,41.04
2022-08-01T22:33:29.932Z,40.80
2022-08-01T22:35:56.993Z,41.37
2022-08-01T22:38:24.611Z,42.28
2022-08-01T22:41:14.228Z,42.92
2022-08-01T22:44:02.002Z,42.87
2022-08-01T22:46:43.692Z,45.09
2022-08-01T22:49:27.055Z,44.21
2022-08-01T22:52:18.967Z,42.94
2022-08-01T22:55:04.181Z,42.18
2022-08-01T22:57:40.527Z,41.64
2022-08-01T23:00:11.158Z,42.16
2022-08-01T23:02:44.624Z,42.84
2022-08-01T23:05:15.067Z,43.92
2022-08-01T23:07:49.955Z,43.82
2022-08-01T23:10:20.152Z,45.30
2022-08-01T23:12:50.505Z,42.42
2022-08-01T23:15:17.580Z,43.39
2022-08-01T23:17:46.621Z,42.05
2022-08-01T23:20:13.580Z,41.87
2022-08-01T23:22:41.592Z,41.82
2022-08-01T23:25:11.007Z,41.88
2022-08-01T23:27:51.859Z,41.56
2022-08-01T23:30:32.207Z,39.95
2022-08-01T23:32:59.669Z,39.38
2022-08-01T23:35:26.956Z,41.47
2022-08-01T23:37:55.896Z,41.11
2022-08-01T23:40:28.975Z,41.91
2022-08-01T23:42:56.009Z,40.49
2022-08-01T23:45:23.758Z,40.96
2022-08-01T23:47:51.031Z,41.44
2022-08-01T23:50:17.895Z,39.87
2022-08-01T23:52:48.587Z,40.53
2022-08-01T23:55:17.298Z,41.62
2022-08-01T23:57:44.468Z,40.37
